SAMM/LGS METAR and TAF weather

Enter ICAO airport designator
Station Type Date Time Source
SAMM METAR 2021/12/21 23:25 UTC NOAA

SAMM 212325Z 18022G33KT 9999 SCT030 SCT045CB 24/10 Q1016


Station Type Date Time Source
SAMM Decoded METAR 2021/12/21 23:25 UTC NOAA

Malargue Aerodrome, Argentina (SAMM) 35-30S 069-35W 1425M
Dec 21, 2021 - 06:25 PM EST / 2021.12.21 2325 UTC
Wind: from the S (180 degrees) at 25 MPH (22 KT) gusting to 38 MPH (33 KT):0
Visibility: greater than 7 mile(s):0
Sky conditions: partly cloudy
Weather: Cumulonimbus clouds observed
Temperature: 75 F (24 C)
Dew Point: 50 F (10 C)
Relative Humidity: 41%
Pressure (altimeter): 30.00 in. Hg (1016 hPa)
ob: SAMM 212325Z 18022G33KT 9999 SCT030 SCT045CB 24/10 Q1016
cycle: 23

Station Type Date Time Source
SAMM TAF UTC NOAA

Error!

Example: see airport list